createdAt,value
2023-04-29T00:01:37.649Z,99515.41
2023-04-29T00:04:04.689Z,99521.06
2023-04-29T00:06:31.839Z,99520.63
2023-04-29T00:08:58.650Z,99522.35
2023-04-29T00:11:25.515Z,99520.89
2023-04-29T00:13:52.701Z,99518.95
2023-04-29T00:16:20.109Z,99514.57
2023-04-29T00:18:47.137Z,99514.94
2023-04-29T00:21:13.976Z,99516.58
2023-04-29T00:23:40.840Z,99515.95
2023-04-29T00:26:07.771Z,99515.69
2023-04-29T00:28:34.716Z,99509.84
2023-04-29T00:31:01.683Z,99508.88
2023-04-29T00:33:29.026Z,99505.98
2023-04-29T00:35:55.951Z,99503.80
2023-04-29T00:38:23.162Z,99507.05
2023-04-29T00:40:50.039Z,99503.13
2023-04-29T00:43:17.451Z,99501.41
2023-04-29T00:45:46.489Z,99500.90
2023-04-29T00:48:14.705Z,99502.04
2023-04-29T00:50:41.711Z,99503.39
2023-04-29T00:53:14.440Z,99502.36
2023-04-29T00:55:41.743Z,99500.25
2023-04-29T00:58:09.912Z,99502.77
2023-04-29T01:00:36.808Z,99497.87
2023-04-29T01:03:04.704Z,99498.88
2023-04-29T01:05:33.258Z,99500.50
2023-04-29T01:08:14.982Z,99503.13
2023-04-29T01:10:54.863Z,99503.68
2023-04-29T01:13:51.487Z,99501.43
2023-04-29T01:16:38.676Z,99506.88
2023-04-29T01:19:17.397Z,99507.71
2023-04-29T01:21:50.625Z,99509.41
2023-04-29T01:24:17.604Z,99511.60
2023-04-29T01:26:56.116Z,99508.67
2023-04-29T01:29:54.524Z,99514.63
2023-04-29T01:32:29.925Z,99511.47
2023-04-29T01:35:06.525Z,99515.23
2023-04-29T01:37:39.233Z,99515.77
2023-04-29T01:40:16.650Z,99520.91
2023-04-29T01:43:09.022Z,99519.30
2023-04-29T01:45:35.920Z,99515.62
2023-04-29T01:48:04.364Z,99520.31
2023-04-29T01:50:32.134Z,99520.45
2023-04-29T01:53:07.836Z,99526.65
2023-04-29T01:55:34.968Z,99528.38
2023-04-29T01:58:12.672Z,99527.59
2023-04-29T02:01:02.948Z,99529.23
2023-04-29T02:03:34.024Z,99533.02
2023-04-29T02:06:01.918Z,99535.19
2023-04-29T02:08:29.119Z,99538.85
2023-04-29T02:10:56.984Z,99541.52
2023-04-29T02:13:41.145Z,99541.42
2023-04-29T02:16:09.509Z,99541.26
2023-04-29T02:18:37.586Z,99539.63
2023-04-29T02:21:05.032Z,99542.08
2023-04-29T02:23:37.011Z,99540.71
2023-04-29T02:26:07.017Z,99543.23
2023-04-29T02:28:34.422Z,99539.02
2023-04-29T02:31:01.824Z,99544.30
2023-04-29T02:33:28.817Z,99546.73
2023-04-29T02:35:55.917Z,99546.37
2023-04-29T02:38:22.777Z,99545.67
2023-04-29T02:40:49.846Z,99548.73
2023-04-29T02:43:16.646Z,99554.38
2023-04-29T02:45:45.025Z,99562.06
2023-04-29T02:48:11.987Z,99562.68
2023-04-29T02:50:39.329Z,99564.85
2023-04-29T02:53:06.376Z,99564.20
2023-04-29T02:55:33.736Z,99567.27
2023-04-29T02:58:05.590Z,99569.09
2023-04-29T03:00:32.553Z,99566.45
2023-04-29T03:02:59.585Z,99568.08
2023-04-29T03:05:26.767Z,99570.63
2023-04-29T03:07:54.009Z,99572.88
2023-04-29T03:10:21.335Z,99572.05
2023-04-29T03:12:48.528Z,99575.92
2023-04-29T03:15:15.835Z,99578.19
2023-04-29T03:17:45.158Z,99581.52
2023-04-29T03:20:13.349Z,99588.45
2023-04-29T03:22:40.562Z,99585.31
2023-04-29T03:25:09.822Z,99587.95
2023-04-29T03:27:37.787Z,99594.85
2023-04-29T03:30:06.383Z,99594.63
2023-04-29T03:32:33.767Z,99600.83
2023-04-29T03:35:01.426Z,99601.71
2023-04-29T03:37:43.666Z,99604.70
2023-04-29T03:40:18.964Z,99602.77
2023-04-29T03:42:45.804Z,99612.98
2023-04-29T03:45:13.774Z,99620.39
2023-04-29T03:47:40.862Z,99622.29
2023-04-29T03:50:08.708Z,99616.82
2023-04-29T03:52:38.606Z,99621.60
2023-04-29T03:55:11.174Z,99623.81
2023-04-29T03:57:39.294Z,99628.96
2023-04-29T04:00:08.484Z,99629.16
2023-04-29T04:02:44.027Z,99627.90
2023-04-29T04:05:11.408Z,99633.06
2023-04-29T04:07:39.206Z,99634.24
2023-04-29T04:10:24.943Z,99643.31
2023-04-29T04:12:52.652Z,99641.11
2023-04-29T04:15:21.947Z,99644.67
2023-04-29T04:17:49.008Z,99646.05
2023-04-29T04:20:16.093Z,99643.34
2023-04-29T04:22:43.432Z,99646.84
2023-04-29T04:25:17.259Z,99648.55
2023-04-29T04:27:44.033Z,99655.92
2023-04-29T04:30:13.966Z,99654.23
2023-04-29T04:32:40.970Z,99656.19
2023-04-29T04:35:08.775Z,99659.40
2023-04-29T04:37:35.732Z,99662.46
2023-04-29T04:40:03.276Z,99665.84
2023-04-29T04:42:33.113Z,99664.62
2023-04-29T04:45:00.444Z,99664.75
2023-04-29T04:47:47.638Z,99664.14
2023-04-29T04:50:21.780Z,99663.83
2023-04-29T04:52:49.235Z,99665.00
2023-04-29T04:55:32.884Z,99664.40
2023-04-29T04:58:02.274Z,99667.20
2023-04-29T05:00:30.440Z,99665.79
2023-04-29T05:02:57.893Z,99666.23
2023-04-29T05:05:25.063Z,99668.33
2023-04-29T05:07:51.824Z,99665.44
2023-04-29T05:10:27.106Z,99664.60
2023-04-29T05:12:55.814Z,99666.78
2023-04-29T05:15:22.706Z,99666.66
2023-04-29T05:17:51.084Z,99667.30
2023-04-29T05:20:18.056Z,99670.55
2023-04-29T05:22:45.674Z,99672.56
2023-04-29T05:25:13.099Z,99674.90
2023-04-29T05:27:40.723Z,99680.77
2023-04-29T05:30:11.642Z,99680.59
2023-04-29T05:32:38.719Z,99687.89
2023-04-29T05:35:07.749Z,99691.76
2023-04-29T05:37:35.291Z,99695.70
2023-04-29T05:40:15.109Z,99696.59
2023-04-29T05:42:42.285Z,99697.59
2023-04-29T05:45:09.854Z,99697.55
2023-04-29T05:47:36.764Z,99696.92
2023-04-29T05:50:03.908Z,99697.35
2023-04-29T05:52:30.958Z,99697.63
2023-04-29T05:54:58.892Z,99692.92
2023-04-29T05:57:25.794Z,99693.92
2023-04-29T05:59:57.193Z,99697.11
2023-04-29T06:02:24.244Z,99696.31
2023-04-29T06:04:51.652Z,99699.25
2023-04-29T06:07:28.181Z,99696.48
2023-04-29T06:09:59.846Z,99697.56
2023-04-29T06:12:27.519Z,99695.83
2023-04-29T06:14:54.681Z,99694.93
2023-04-29T06:17:21.828Z,99694.02
2023-04-29T06:19:48.776Z,99697.30
2023-04-29T06:22:15.650Z,99696.91
2023-04-29T06:24:49.424Z,99696.95
2023-04-29T06:27:22.655Z,99701.05
2023-04-29T06:29:49.474Z,99696.80
2023-04-29T06:32:16.605Z,99696.83
2023-04-29T06:34:45.291Z,99697.40
2023-04-29T06:37:28.271Z,99700.84
2023-04-29T06:40:07.064Z,99698.64
2023-04-29T06:43:03.948Z,99697.48
2023-04-29T06:45:51.260Z,99697.96
2023-04-29T06:48:22.136Z,99700.95
2023-04-29T06:50:53.865Z,99699.13
2023-04-29T06:53:21.249Z,99694.67
2023-04-29T06:55:48.189Z,99696.03
2023-04-29T06:58:15.827Z,99697.86
2023-04-29T07:00:46.954Z,99699.79
2023-04-29T07:03:14.745Z,99704.05
2023-04-29T07:05:44.782Z,99702.16
2023-04-29T07:08:12.682Z,99690.95
2023-04-29T07:10:40.875Z,99694.70
2023-04-29T07:13:07.692Z,99691.41
2023-04-29T07:15:35.816Z,99699.59
2023-04-29T07:18:04.856Z,99693.87
2023-04-29T07:20:31.839Z,99692.13
2023-04-29T07:22:58.881Z,99692.58
2023-04-29T07:25:27.231Z,99693.10
2023-04-29T07:27:53.932Z,99686.53
2023-04-29T07:30:20.816Z,99688.21
2023-04-29T07:32:47.682Z,99685.88
2023-04-29T07:35:14.766Z,99688.77
2023-04-29T07:37:43.971Z,99689.11
2023-04-29T07:40:11.156Z,99692.91
2023-04-29T07:42:38.369Z,99685.82
2023-04-29T07:45:06.673Z,99684.55
2023-04-29T07:47:34.353Z,99679.61
2023-04-29T07:50:01.145Z,99685.81
2023-04-29T07:52:29.015Z,99685.31
2023-04-29T07:54:55.914Z,99683.61
2023-04-29T07:57:22.680Z,99676.08
2023-04-29T07:59:53.481Z,99668.27
2023-04-29T08:02:21.031Z,99674.92
2023-04-29T08:04:48.675Z,99671.85
2023-04-29T08:07:16.952Z,99662.42
2023-04-29T08:09:43.691Z,99666.40
2023-04-29T08:12:10.933Z,99664.14
2023-04-29T08:14:40.482Z,99668.62
2023-04-29T08:17:08.142Z,99667.25
2023-04-29T08:19:35.311Z,99670.73
2023-04-29T08:22:03.642Z,99674.17
2023-04-29T08:24:32.997Z,99673.15
2023-04-29T08:26:59.864Z,99663.66
2023-04-29T08:29:27.148Z,99662.99
2023-04-29T08:31:54.030Z,99666.73
2023-04-29T08:34:20.894Z,99655.33
2023-04-29T08:36:47.684Z,99655.91
2023-04-29T08:39:14.460Z,99653.86
2023-04-29T08:41:43.613Z,99652.18
2023-04-29T08:44:10.430Z,99654.78
2023-04-29T08:46:38.250Z,99647.76
2023-04-29T08:49:05.005Z,99648.46
2023-04-29T08:51:34.108Z,99647.55
2023-04-29T08:54:01.178Z,99647.42
2023-04-29T08:56:28.361Z,99631.84
2023-04-29T08:58:55.918Z,99629.40
2023-04-29T09:01:22.811Z,99628.18
2023-04-29T09:03:54.548Z,99633.66
2023-04-29T09:06:21.605Z,99629.34
2023-04-29T09:08:48.446Z,99630.84
2023-04-29T09:11:15.278Z,99630.70
2023-04-29T09:13:42.107Z,99628.52
2023-04-29T09:16:12.257Z,99624.52
2023-04-29T09:18:49.790Z,99625.59
2023-04-29T09:21:16.578Z,99625.02
2023-04-29T09:23:44.290Z,99628.51
2023-04-29T09:26:11.078Z,99617.70
2023-04-29T09:28:40.563Z,99613.17
2023-04-29T09:31:08.091Z,99608.36
2023-04-29T09:33:51.930Z,99602.02
2023-04-29T09:36:48.814Z,99606.73
2023-04-29T09:39:21.564Z,99606.02
2023-04-29T09:41:54.396Z,99601.07
2023-04-29T09:44:33.612Z,99608.68
2023-04-29T09:47:03.551Z,99610.70
2023-04-29T09:49:38.015Z,99608.80
2023-04-29T09:52:16.129Z,99612.83
2023-04-29T09:54:43.134Z,99615.17
2023-04-29T09:57:11.483Z,99607.98
2023-04-29T09:59:39.109Z,99604.19
2023-04-29T10:02:17.114Z,99607.64
2023-04-29T10:04:48.000Z,99590.83
2023-04-29T10:07:16.273Z,99596.83
2023-04-29T10:09:43.810Z,99604.25
2023-04-29T10:12:10.791Z,99593.43
2023-04-29T10:14:45.055Z,99596.73
2023-04-29T10:17:17.007Z,99592.94
2023-04-29T10:19:56.736Z,99593.11
2023-04-29T10:22:30.395Z,99594.71
2023-04-29T10:24:58.640Z,99600.02
2023-04-29T10:27:25.899Z,99596.39
2023-04-29T10:29:52.668Z,99596.41
2023-04-29T10:32:19.441Z,99584.94
2023-04-29T10:34:46.257Z,99586.15
2023-04-29T10:37:12.978Z,99581.27
2023-04-29T10:39:52.771Z,99577.61
2023-04-29T10:42:34.710Z,99573.52
2023-04-29T10:45:34.922Z,99571.13
2023-04-29T10:48:02.199Z,99565.43
2023-04-29T10:50:29.954Z,99570.33
2023-04-29T10:52:57.260Z,99568.98
2023-04-29T10:55:24.567Z,99569.31
2023-04-29T10:57:57.750Z,99564.64
2023-04-29T11:00:28.895Z,99568.82
2023-04-29T11:02:56.773Z,99562.84
2023-04-29T11:05:30.363Z,99565.95
2023-04-29T11:08:12.962Z,99566.54
2023-04-29T11:10:43.103Z,99566.61
2023-04-29T11:13:29.493Z,99565.90
2023-04-29T11:16:07.406Z,99558.91
2023-04-29T11:18:36.696Z,99552.21
2023-04-29T11:21:06.399Z,99554.01
2023-04-29T11:23:34.183Z,99547.55
2023-04-29T11:26:01.002Z,99541.39
2023-04-29T11:28:28.091Z,99540.63
2023-04-29T11:30:54.912Z,99539.09
2023-04-29T11:33:21.885Z,99535.45
2023-04-29T11:35:48.814Z,99532.05
2023-04-29T11:38:15.737Z,99530.13
2023-04-29T11:40:48.689Z,99530.63
2023-04-29T11:43:19.458Z,99530.94
2023-04-29T11:45:46.517Z,99530.47
2023-04-29T11:48:23.644Z,99523.85
2023-04-29T11:50:57.277Z,99523.91
2023-04-29T11:53:25.353Z,99516.14
2023-04-29T11:55:55.396Z,99503.40
2023-04-29T11:58:22.816Z,99501.23
2023-04-29T12:00:50.256Z,99506.57
2023-04-29T12:03:19.010Z,99500.75
2023-04-29T12:05:53.458Z,99498.92
2023-04-29T12:08:21.189Z,99498.97
2023-04-29T12:10:48.800Z,99502.27
2023-04-29T12:13:18.968Z,99496.19
2023-04-29T12:15:47.086Z,99492.55
2023-04-29T12:18:14.092Z,99485.24
2023-04-29T12:20:40.918Z,99485.70
2023-04-29T12:23:15.043Z,99484.94
2023-04-29T12:25:42.108Z,99483.83
2023-04-29T12:28:12.650Z,99480.74
2023-04-29T12:30:39.408Z,99480.74
2023-04-29T12:33:09.367Z,99481.91
2023-04-29T12:35:36.604Z,99476.17
2023-04-29T12:38:03.389Z,99475.67
2023-04-29T12:40:32.391Z,99464.56
2023-04-29T12:43:06.618Z,99464.92
2023-04-29T12:45:34.284Z,99462.05
2023-04-29T12:48:01.345Z,99461.30
2023-04-29T12:50:32.643Z,99451.35
2023-04-29T12:52:59.782Z,99452.96
2023-04-29T12:55:26.711Z,99455.40
2023-04-29T12:57:53.434Z,99455.26
2023-04-29T13:00:21.091Z,99450.52
2023-04-29T13:02:48.331Z,99447.50
2023-04-29T13:05:16.005Z,99444.73
2023-04-29T13:07:43.218Z,99445.38
2023-04-29T13:10:12.009Z,99444.27
2023-04-29T13:12:39.058Z,99450.34
2023-04-29T13:15:09.087Z,99445.14
2023-04-29T13:17:36.530Z,99449.02
2023-04-29T13:20:04.984Z,99451.45
2023-04-29T13:22:32.290Z,99449.32
2023-04-29T13:24:59.144Z,99446.61
2023-04-29T13:27:26.207Z,99452.96
2023-04-29T13:29:53.034Z,99442.11
2023-04-29T13:32:24.363Z,99438.64
2023-04-29T13:34:51.713Z,99426.59
2023-04-29T13:37:21.804Z,99425.64
2023-04-29T13:39:54.150Z,99426.68
2023-04-29T13:42:26.948Z,99423.33
2023-04-29T13:44:56.713Z,99428.39
2023-04-29T13:47:26.154Z,99425.45
2023-04-29T13:50:16.984Z,99422.16
2023-04-29T14:00:31.718Z,99425.95
2023-04-29T14:05:28.497Z,99428.89
2023-04-29T14:07:55.421Z,99422.31
2023-04-29T14:10:22.263Z,99419.14
2023-04-29T14:12:49.133Z,99412.15
2023-04-29T14:15:16.272Z,99410.75
2023-04-29T14:17:43.131Z,99413.99
2023-04-29T14:20:10.218Z,99412.50
2023-04-29T14:22:37.910Z,99414.99
2023-04-29T14:25:06.307Z,99420.95
2023-04-29T14:27:35.117Z,99419.52
2023-04-29T14:30:01.915Z,99415.39
2023-04-29T14:32:29.605Z,99414.64
2023-04-29T14:34:56.361Z,99413.51
2023-04-29T14:37:23.059Z,99406.10
2023-04-29T14:39:49.794Z,99410.02
2023-04-29T14:42:18.170Z,99407.50
2023-04-29T14:44:45.021Z,99407.70
2023-04-29T14:47:11.853Z,99410.99
2023-04-29T14:49:38.981Z,99411.14
2023-04-29T14:52:06.566Z,99419.94
2023-04-29T14:54:33.569Z,99421.28
2023-04-29T14:57:01.652Z,99424.25
2023-04-29T14:59:30.164Z,99421.98
2023-04-29T15:01:57.270Z,99415.87
2023-04-29T15:04:24.266Z,99420.89
2023-04-29T15:06:51.057Z,99422.80
2023-04-29T15:09:18.182Z,99417.60
2023-04-29T15:11:45.288Z,99418.86
2023-04-29T15:14:12.125Z,99423.32
2023-04-29T15:16:39.347Z,99422.69
2023-04-29T15:19:06.440Z,99423.17
2023-04-29T15:21:33.989Z,99417.60
2023-04-29T15:24:02.032Z,99415.04
2023-04-29T15:26:29.344Z,99410.14
2023-04-29T15:28:56.260Z,99403.35
2023-04-29T15:31:24.913Z,99398.77
2023-04-29T15:33:53.287Z,99394.54
2023-04-29T15:36:35.417Z,99389.45
2023-04-29T15:39:02.373Z,99391.19
2023-04-29T15:41:29.242Z,99391.90
2023-04-29T15:43:56.194Z,99394.38
2023-04-29T15:46:23.194Z,99392.21
2023-04-29T15:48:50.853Z,99388.58
2023-04-29T15:51:18.210Z,99381.27
2023-04-29T15:53:44.962Z,99384.21
2023-04-29T15:56:12.820Z,99383.25
2023-04-29T15:58:39.764Z,99386.24
2023-04-29T16:01:06.744Z,99388.34
2023-04-29T16:03:34.103Z,99383.65
2023-04-29T16:06:01.146Z,99384.43
2023-04-29T16:08:28.241Z,99380.06
2023-04-29T16:10:55.481Z,99378.55
2023-04-29T16:13:22.351Z,99375.53
2023-04-29T16:15:49.572Z,99374.46
2023-04-29T16:18:17.329Z,99376.31
2023-04-29T16:20:45.034Z,99379.30
2023-04-29T16:23:11.881Z,99380.24
2023-04-29T16:25:40.875Z,99384.41
2023-04-29T16:28:07.707Z,99384.91
2023-04-29T16:30:35.471Z,99392.06
2023-04-29T16:33:02.483Z,99395.95
2023-04-29T16:35:30.320Z,99395.94
2023-04-29T16:37:57.167Z,99395.16
2023-04-29T16:40:24.106Z,99393.55
2023-04-29T16:42:52.720Z,99394.90
2023-04-29T16:45:20.523Z,99396.12
2023-04-29T16:47:49.162Z,99395.70
2023-04-29T16:50:16.965Z,99398.15
2023-04-29T16:52:44.174Z,99396.28
2023-04-29T16:55:14.172Z,99397.18
2023-04-29T16:57:41.586Z,99397.42
2023-04-29T17:00:09.811Z,99402.64
2023-04-29T17:02:39.460Z,99400.89
2023-04-29T17:05:08.331Z,99401.20
2023-04-29T17:07:35.304Z,99394.74
2023-04-29T17:10:03.166Z,99396.06
2023-04-29T17:12:30.216Z,99395.21
2023-04-29T17:14:57.263Z,99394.96
2023-04-29T17:17:24.104Z,99390.39
2023-04-29T17:19:51.098Z,99385.11
2023-04-29T17:22:19.321Z,99381.73
2023-04-29T17:24:46.463Z,99384.58
2023-04-29T17:27:13.332Z,99387.52
2023-04-29T17:29:40.369Z,99387.16
2023-04-29T17:32:11.977Z,99385.25
2023-04-29T17:34:38.964Z,99386.95
2023-04-29T17:37:06.206Z,99391.23
2023-04-29T17:39:33.869Z,99391.00
2023-04-29T17:42:00.873Z,99395.66
2023-04-29T17:44:27.972Z,99395.14
2023-04-29T17:46:54.834Z,99395.11
2023-04-29T17:49:21.655Z,99400.47
2023-04-29T17:51:48.430Z,99397.66
2023-04-29T17:54:15.213Z,99398.77
2023-04-29T17:56:42.017Z,99403.36
2023-04-29T17:59:09.029Z,99408.30
2023-04-29T18:01:36.636Z,99409.23
2023-04-29T18:04:04.318Z,99408.55
2023-04-29T18:06:31.514Z,99410.52
2023-04-29T18:08:58.433Z,99406.75
2023-04-29T18:11:25.476Z,99411.98
2023-04-29T18:13:53.344Z,99410.62
2023-04-29T18:16:20.283Z,99411.42
2023-04-29T18:18:47.236Z,99406.85
2023-04-29T18:21:20.055Z,99410.60
2023-04-29T18:23:47.270Z,99405.10
2023-04-29T18:26:14.665Z,99406.20
2023-04-29T18:28:41.484Z,99407.46
2023-04-29T18:31:08.277Z,99406.75
2023-04-29T18:33:36.413Z,99406.84
2023-04-29T18:36:03.706Z,99407.85
2023-04-29T18:38:30.670Z,99403.35
2023-04-29T18:40:57.494Z,99399.91
2023-04-29T18:43:27.844Z,99401.20
2023-04-29T18:45:56.373Z,99403.94
2023-04-29T18:48:23.778Z,99406.77
2023-04-29T18:50:52.164Z,99409.19
2023-04-29T18:53:19.095Z,99409.23
2023-04-29T18:55:46.654Z,99404.98
2023-04-29T18:58:14.172Z,99406.60
2023-04-29T19:00:41.924Z,99402.13
2023-04-29T19:03:08.967Z,99404.16
2023-04-29T19:05:35.844Z,99398.16
2023-04-29T19:08:02.692Z,99394.55
2023-04-29T19:10:30.009Z,99397.02
2023-04-29T19:12:56.786Z,99393.73
2023-04-29T19:15:27.297Z,99392.40
2023-04-29T19:17:54.639Z,99392.86
2023-04-29T19:20:21.565Z,99391.09
2023-04-29T19:22:48.676Z,99388.76
2023-04-29T19:25:15.560Z,99389.49
2023-04-29T19:27:45.142Z,99389.24
2023-04-29T19:30:12.629Z,99383.83
2023-04-29T19:32:40.580Z,99382.85
2023-04-29T19:35:08.120Z,99380.65
2023-04-29T19:37:35.256Z,99376.96
2023-04-29T19:40:03.189Z,99378.75
2023-04-29T19:42:31.209Z,99369.08
2023-04-29T19:44:58.036Z,99369.73
2023-04-29T19:47:25.147Z,99368.98
2023-04-29T19:49:52.297Z,99366.70
2023-04-29T19:52:19.396Z,99366.08
2023-04-29T19:54:46.228Z,99357.60
2023-04-29T19:57:13.045Z,99355.43
2023-04-29T19:59:40.074Z,99351.52
2023-04-29T20:02:06.950Z,99352.64
2023-04-29T20:04:34.362Z,99353.61
2023-04-29T20:07:01.355Z,99351.65
2023-04-29T20:09:28.284Z,99352.86
2023-04-29T20:11:55.246Z,99347.05
2023-04-29T20:14:22.953Z,99345.65
2023-04-29T20:16:49.787Z,99347.14
2023-04-29T20:19:17.134Z,99348.02
2023-04-29T20:21:44.352Z,99343.21
2023-04-29T20:24:11.343Z,99345.30
2023-04-29T20:26:38.136Z,99344.71
2023-04-29T20:29:05.288Z,99347.14
2023-04-29T20:31:32.561Z,99343.54
2023-04-29T20:33:59.727Z,99344.25
2023-04-29T20:36:27.936Z,99349.42
2023-04-29T20:38:54.783Z,99348.04
2023-04-29T20:41:21.821Z,99348.58
2023-04-29T20:43:48.689Z,99347.35
2023-04-29T20:46:16.305Z,99346.64
2023-04-29T20:48:43.402Z,99343.41
2023-04-29T20:51:11.783Z,99341.89
2023-04-29T20:53:38.944Z,99339.84
2023-04-29T20:56:07.982Z,99334.49
2023-04-29T20:58:34.970Z,99333.08
2023-04-29T21:01:01.812Z,99331.98
2023-04-29T21:03:29.177Z,99334.23
2023-04-29T21:05:56.824Z,99332.31
2023-04-29T21:08:24.098Z,99333.10
2023-04-29T21:10:50.963Z,99333.95
2023-04-29T21:13:17.758Z,99333.42
2023-04-29T21:15:45.874Z,99333.63
2023-04-29T21:18:13.360Z,99330.77
2023-04-29T21:20:40.229Z,99330.72
2023-04-29T21:23:07.047Z,99321.44
2023-04-29T21:25:34.118Z,99322.36
2023-04-29T21:28:01.187Z,99325.85
2023-04-29T21:30:28.373Z,99325.48
2023-04-29T21:32:55.775Z,99330.91
2023-04-29T21:35:23.446Z,99325.77
2023-04-29T21:37:51.568Z,99325.20
2023-04-29T21:40:20.618Z,99325.52
2023-04-29T21:42:50.509Z,99334.42
2023-04-29T21:45:17.360Z,99323.39
2023-04-29T21:47:44.183Z,99328.54
2023-04-29T21:50:11.381Z,99325.28
2023-04-29T21:52:38.606Z,99329.00
2023-04-29T21:55:06.155Z,99328.96
2023-04-29T21:57:43.388Z,99321.06
2023-04-29T22:00:28.050Z,99317.48
2023-04-29T22:02:55.109Z,99312.64
2023-04-29T22:05:21.990Z,99318.29
2023-04-29T22:07:48.938Z,99317.73
2023-04-29T22:10:15.791Z,99316.18
2023-04-29T22:12:42.610Z,99318.67
2023-04-29T22:15:20.695Z,99324.36
2023-04-29T22:17:54.724Z,99320.81
2023-04-29T22:20:21.631Z,99323.88
2023-04-29T22:22:48.565Z,99319.74
2023-04-29T22:25:15.479Z,99316.66
2023-04-29T22:27:42.350Z,99315.70
2023-04-29T22:30:09.763Z,99318.23
2023-04-29T22:32:36.719Z,99315.35
2023-04-29T22:35:04.063Z,99315.86
2023-04-29T22:37:31.155Z,99312.94
2023-04-29T22:39:58.406Z,99318.83
2023-04-29T22:42:25.268Z,99319.07
2023-04-29T22:44:52.247Z,99316.58
2023-04-29T22:47:19.097Z,99313.92
2023-04-29T22:49:46.017Z,99310.44
2023-04-29T22:52:12.983Z,99306.69
2023-04-29T22:54:40.437Z,99302.77
2023-04-29T22:57:07.412Z,99303.14
2023-04-29T22:59:36.280Z,99303.65
2023-04-29T23:02:03.107Z,99303.55
2023-04-29T23:04:31.788Z,99301.65
2023-04-29T23:06:58.852Z,99301.65
2023-04-29T23:09:26.105Z,99298.34
2023-04-29T23:11:52.954Z,99299.02
2023-04-29T23:14:20.468Z,99300.42
2023-04-29T23:16:47.239Z,99299.20
2023-04-29T23:19:14.078Z,99299.80
2023-04-29T23:21:41.369Z,99304.51
2023-04-29T23:24:08.282Z,99304.72
2023-04-29T23:26:35.259Z,99306.30
2023-04-29T23:29:02.168Z,99306.58
2023-04-29T23:31:29.107Z,99308.85
2023-04-29T23:33:56.261Z,99307.48
2023-04-29T23:36:23.088Z,99303.92
2023-04-29T23:38:50.040Z,99303.63
2023-04-29T23:41:16.881Z,99303.39
2023-04-29T23:43:43.731Z,99303.63
2023-04-29T23:46:10.645Z,99303.39
2023-04-29T23:48:37.719Z,99306.61
2023-04-29T23:51:04.682Z,99302.95
2023-04-29T23:53:31.712Z,99303.57
2023-04-29T23:55:58.650Z,99305.61
2023-04-29T23:58:25.595Z,99304.21
